sensor_id;sensor_type;location;lat;lon;timestamp;pressure;altitude;pressure_sealevel;temperature;humidity
37200;BME280;23096;50.892;16.746;2024-03-17T00:00:03;99741.39;;;5.92;68.22
37200;BME280;23096;50.892;16.746;2024-03-17T00:02:30;99740.70;;;5.93;68.30
37200;BME280;23096;50.892;16.746;2024-03-17T00:04:55;99740.20;;;5.95;68.17
37200;BME280;23096;50.892;16.746;2024-03-17T00:07:21;99741.56;;;5.97;68.18
37200;BME280;23096;50.892;16.746;2024-03-17T00:09:46;99742.41;;;5.99;68.23
37200;BME280;23096;50.892;16.746;2024-03-17T00:12:12;99740.55;;;5.99;68.28
37200;BME280;23096;50.892;16.746;2024-03-17T00:14:38;99738.85;;;5.97;68.22
37200;BME280;23096;50.892;16.746;2024-03-17T00:17:04;99743.44;;;5.95;68.21
37200;BME280;23096;50.892;16.746;2024-03-17T00:19:30;99742.06;;;5.93;68.12
37200;BME280;23096;50.892;16.746;2024-03-17T00:21:55;99739.18;;;5.91;68.11
37200;BME280;23096;50.892;16.746;2024-03-17T00:24:21;99742.77;;;5.89;68.15
37200;BME280;23096;50.892;16.746;2024-03-17T00:26:47;99746.70;;;5.89;68.11
37200;BME280;23096;50.892;16.746;2024-03-17T00:29:13;99749.61;;;5.85;68.09
37200;BME280;23096;50.892;16.746;2024-03-17T00:31:39;99755.08;;;5.82;68.09
37200;BME280;23096;50.892;16.746;2024-03-17T00:34:05;99756.45;;;5.79;68.09
37200;BME280;23096;50.892;16.746;2024-03-17T00:36:30;99756.64;;;5.76;68.04
37200;BME280;23096;50.892;16.746;2024-03-17T00:38:56;99754.96;;;5.71;68.03
37200;BME280;23096;50.892;16.746;2024-03-17T00:41:22;99755.14;;;5.68;68.10
37200;BME280;23096;50.892;16.746;2024-03-17T00:43:49;99754.98;;;5.66;68.11
37200;BME280;23096;50.892;16.746;2024-03-17T00:46:15;99751.23;;;5.64;68.11
37200;BME280;23096;50.892;16.746;2024-03-17T00:48:41;99756.02;;;5.61;68.05
37200;BME280;23096;50.892;16.746;2024-03-17T00:51:06;99758.73;;;5.60;68.05
37200;BME280;23096;50.892;16.746;2024-03-17T00:53:32;99762.51;;;5.56;67.95
37200;BME280;23096;50.892;16.746;2024-03-17T00:55:57;99760.99;;;5.51;67.99
37200;BME280;23096;50.892;16.746;2024-03-17T00:58:24;99761.68;;;5.48;68.04
37200;BME280;23096;50.892;16.746;2024-03-17T01:00:49;99761.68;;;5.45;68.06
37200;BME280;23096;50.892;16.746;2024-03-17T01:03:18;99756.43;;;5.41;68.07
37200;BME280;23096;50.892;16.746;2024-03-17T01:05:44;99757.11;;;5.38;67.92
37200;BME280;23096;50.892;16.746;2024-03-17T01:08:15;99756.95;;;5.37;68.11
37200;BME280;23096;50.892;16.746;2024-03-17T01:10:41;99757.30;;;5.36;68.09
37200;BME280;23096;50.892;16.746;2024-03-17T01:13:07;99763.77;;;5.34;68.09
37200;BME280;23096;50.892;16.746;2024-03-17T01:15:34;99761.05;;;5.33;68.06
37200;BME280;23096;50.892;16.746;2024-03-17T01:18:00;99766.83;;;5.32;68.12
37200;BME280;23096;50.892;16.746;2024-03-17T01:20:26;99764.45;;;5.31;68.08
37200;BME280;23096;50.892;16.746;2024-03-17T01:22:51;99765.82;;;5.30;68.07
37200;BME280;23096;50.892;16.746;2024-03-17T01:25:18;99763.79;;;5.27;68.06
37200;BME280;23096;50.892;16.746;2024-03-17T01:27:43;99764.80;;;5.26;68.15
37200;BME280;23096;50.892;16.746;2024-03-17T01:30:10;99761.23;;;5.25;68.17
37200;BME280;23096;50.892;16.746;2024-03-17T01:32:36;99761.58;;;5.23;68.14
37200;BME280;23096;50.892;16.746;2024-03-17T01:35:01;99757.68;;;5.17;68.13
37200;BME280;23096;50.892;16.746;2024-03-17T01:37:27;99756.48;;;5.13;68.17
37200;BME280;23096;50.892;16.746;2024-03-17T01:40:00;99756.14;;;5.12;68.08
37200;BME280;23096;50.892;16.746;2024-03-17T01:42:26;99749.67;;;5.09;68.08
37200;BME280;23096;50.892;16.746;2024-03-17T01:44:51;99750.36;;;5.05;68.19
37200;BME280;23096;50.892;16.746;2024-03-17T01:47:20;99750.70;;;5.02;68.17
37200;BME280;23096;50.892;16.746;2024-03-17T01:49:49;99752.73;;;4.99;68.16
37200;BME280;23096;50.892;16.746;2024-03-17T01:52:16;99751.56;;;4.96;68.11
37200;BME280;23096;50.892;16.746;2024-03-17T01:54:43;99758.73;;;4.93;68.08
37200;BME280;23096;50.892;16.746;2024-03-17T01:57:09;99762.30;;;4.90;68.17
37200;BME280;23096;50.892;16.746;2024-03-17T01:59:36;99759.41;;;4.86;68.13
37200;BME280;23096;50.892;16.746;2024-03-17T02:02:02;99761.11;;;4.83;68.12
37200;BME280;23096;50.892;16.746;2024-03-17T02:04:27;99763.49;;;4.78;68.09
37200;BME280;23096;50.892;16.746;2024-03-17T02:06:53;99765.70;;;4.76;68.11
37200;BME280;23096;50.892;16.746;2024-03-17T02:09:19;99770.63;;;4.73;68.08
37200;BME280;23096;50.892;16.746;2024-03-17T02:11:44;99767.05;;;4.71;68.10
37200;BME280;23096;50.892;16.746;2024-03-17T02:14:10;99771.65;;;4.69;68.05
37200;BME280;23096;50.892;16.746;2024-03-17T02:16:39;99775.58;;;4.68;68.17
37200;BME280;23096;50.892;16.746;2024-03-17T02:19:04;99770.64;;;4.67;68.06
37200;BME280;23096;50.892;16.746;2024-03-17T02:21:30;99771.14;;;4.65;68.22
37200;BME280;23096;50.892;16.746;2024-03-17T02:23:55;99775.23;;;4.63;68.11
37200;BME280;23096;50.892;16.746;2024-03-17T02:26:22;99777.95;;;4.63;68.12
37200;BME280;23096;50.892;16.746;2024-03-17T02:28:48;99777.43;;;4.58;68.16
37200;BME280;23096;50.892;16.746;2024-03-17T02:31:15;99781.02;;;4.56;68.15
37200;BME280;23096;50.892;16.746;2024-03-17T02:33:42;99780.84;;;4.55;68.06
37200;BME280;23096;50.892;16.746;2024-03-17T02:36:08;99777.77;;;4.54;68.02
37200;BME280;23096;50.892;16.746;2024-03-17T02:38:34;99780.66;;;4.52;68.09
37200;BME280;23096;50.892;16.746;2024-03-17T02:41:19;99778.44;;;4.50;68.00
37200;BME280;23096;50.892;16.746;2024-03-17T02:43:45;99784.91;;;4.48;68.00
37200;BME280;23096;50.892;16.746;2024-03-17T02:46:20;99787.63;;;4.45;68.04
37200;BME280;23096;50.892;16.746;2024-03-17T02:48:47;99787.27;;;4.43;68.05
37200;BME280;23096;50.892;16.746;2024-03-17T02:51:14;99789.16;;;4.43;68.02
37200;BME280;23096;50.892;16.746;2024-03-17T02:53:41;99789.49;;;4.40;68.03
37200;BME280;23096;50.892;16.746;2024-03-17T02:56:07;99787.79;;;4.37;67.95
37200;BME280;23096;50.892;16.746;2024-03-17T02:58:35;99790.67;;;4.35;67.95
37200;BME280;23096;50.892;16.746;2024-03-17T03:01:05;99792.72;;;4.34;67.96
37200;BME280;23096;50.892;16.746;2024-03-17T03:03:34;99791.17;;;4.31;68.07
37200;BME280;23096;50.892;16.746;2024-03-17T03:06:00;99794.56;;;4.29;67.94
37200;BME280;23096;50.892;16.746;2024-03-17T03:08:29;99794.23;;;4.27;68.04
37200;BME280;23096;50.892;16.746;2024-03-17T03:10:55;99793.71;;;4.27;67.92
37200;BME280;23096;50.892;16.746;2024-03-17T03:13:20;99797.64;;;4.25;68.00
37200;BME280;23096;50.892;16.746;2024-03-17T03:15:47;99798.98;;;4.23;67.99
37200;BME280;23096;50.892;16.746;2024-03-17T03:18:14;99795.91;;;4.23;68.05
37200;BME280;23096;50.892;16.746;2024-03-17T03:20:39;99797.11;;;4.21;68.00
37200;BME280;23096;50.892;16.746;2024-03-17T03:23:05;99797.45;;;4.22;67.98
37200;BME280;23096;50.892;16.746;2024-03-17T03:25:30;99794.03;;;4.21;67.97
37200;BME280;23096;50.892;16.746;2024-03-17T03:27:56;99796.41;;;4.19;67.97
37200;BME280;23096;50.892;16.746;2024-03-17T03:30:23;99790.63;;;4.18;67.93
37200;BME280;23096;50.892;16.746;2024-03-17T03:32:49;99790.12;;;4.17;68.00
37200;BME280;23096;50.892;16.746;2024-03-17T03:35:14;99790.63;;;4.16;67.89
37200;BME280;23096;50.892;16.746;2024-03-17T03:37:41;99793.85;;;4.15;67.87
37200;BME280;23096;50.892;16.746;2024-03-17T03:40:10;99797.93;;;4.15;67.89
37200;BME280;23096;50.892;16.746;2024-03-17T03:42:42;99799.98;;;4.14;67.90
37200;BME280;23096;50.892;16.746;2024-03-17T03:45:09;99798.09;;;4.12;67.98
37200;BME280;23096;50.892;16.746;2024-03-17T03:47:38;99794.17;;;4.10;67.85
37200;BME280;23096;50.892;16.746;2024-03-17T03:50:09;99796.89;;;4.08;67.82
37200;BME280;23096;50.892;16.746;2024-03-17T03:52:36;99797.73;;;4.03;67.93
37200;BME280;23096;50.892;16.746;2024-03-17T03:55:02;99800.11;;;4.01;67.84
37200;BME280;23096;50.892;16.746;2024-03-17T03:57:30;99796.52;;;3.97;67.76
37200;BME280;23096;50.892;16.746;2024-03-17T03:59:55;99799.05;;;3.93;67.90
37200;BME280;23096;50.892;16.746;2024-03-17T04:02:21;99802.77;;;3.91;67.87
37200;BME280;23096;50.892;16.746;2024-03-17T04:04:47;99810.59;;;3.88;67.91
37200;BME280;23096;50.892;16.746;2024-03-17T04:07:13;99814.65;;;3.85;67.90
37200;BME280;23096;50.892;16.746;2024-03-17T04:09:39;99814.64;;;3.81;67.79
37200;BME280;23096;50.892;16.746;2024-03-17T04:12:04;99812.08;;;3.79;67.80
37200;BME280;23096;50.892;16.746;2024-03-17T04:14:30;99811.56;;;3.77;67.83
37200;BME280;23096;50.892;16.746;2024-03-17T04:16:57;99809.01;;;3.75;67.90
37200;BME280;23096;50.892;16.746;2024-03-17T04:19:23;99810.35;;;3.73;67.89
37200;BME280;23096;50.892;16.746;2024-03-17T04:21:49;99817.48;;;3.71;67.68
37200;BME280;23096;50.892;16.746;2024-03-17T04:24:14;99816.80;;;3.70;67.80
37200;BME280;23096;50.892;16.746;2024-03-17T04:26:40;99813.72;;;3.66;67.77
37200;BME280;23096;50.892;16.746;2024-03-17T04:29:05;99814.39;;;3.64;67.78
37200;BME280;23096;50.892;16.746;2024-03-17T04:31:31;99815.38;;;3.62;67.76
37200;BME280;23096;50.892;16.746;2024-03-17T04:33:57;99817.25;;;3.62;67.69
37200;BME280;23096;50.892;16.746;2024-03-17T04:36:23;99814.70;;;3.61;67.72
37200;BME280;23096;50.892;16.746;2024-03-17T04:38:48;99815.02;;;3.59;67.67
37200;BME280;23096;50.892;16.746;2024-03-17T04:41:17;99818.92;;;3.58;67.56
37200;BME280;23096;50.892;16.746;2024-03-17T04:43:44;99820.96;;;3.56;67.63
37200;BME280;23096;50.892;16.746;2024-03-17T04:46:09;99821.45;;;3.53;67.67
37200;BME280;23096;50.892;16.746;2024-03-17T04:48:37;99819.41;;;3.51;67.65
37200;BME280;23096;50.892;16.746;2024-03-17T04:51:03;99822.11;;;3.51;67.60
37200;BME280;23096;50.892;16.746;2024-03-17T04:53:30;99824.66;;;3.50;67.55
37200;BME280;23096;50.892;16.746;2024-03-17T04:56:04;99829.24;;;3.48;67.44
37200;BME280;23096;50.892;16.746;2024-03-17T04:58:31;99833.30;;;3.45;67.50
37200;BME280;23096;50.892;16.746;2024-03-17T05:00:56;99833.13;;;3.46;67.55
37200;BME280;23096;50.892;16.746;2024-03-17T05:03:22;99835.33;;;3.45;67.45
37200;BME280;23096;50.892;16.746;2024-03-17T05:05:47;99837.70;;;3.44;67.40
37200;BME280;23096;50.892;16.746;2024-03-17T05:08:13;99835.31;;;3.41;67.40
37200;BME280;23096;50.892;16.746;2024-03-17T05:10:38;99835.32;;;3.41;67.37
37200;BME280;23096;50.892;16.746;2024-03-17T05:13:04;99835.98;;;3.40;67.48
37200;BME280;23096;50.892;16.746;2024-03-17T05:15:29;99841.92;;;3.38;67.32
37200;BME280;23096;50.892;16.746;2024-03-17T05:17:55;99837.48;;;3.36;67.25
37200;BME280;23096;50.892;16.746;2024-03-17T05:20:20;99840.21;;;3.36;67.17
37200;BME280;23096;50.892;16.746;2024-03-17T05:22:46;99840.86;;;3.34;67.20
37200;BME280;23096;50.892;16.746;2024-03-17T05:25:13;99839.66;;;3.32;67.13
37200;BME280;23096;50.892;16.746;2024-03-17T05:27:38;99840.66;;;3.29;67.23
37200;BME280;23096;50.892;16.746;2024-03-17T05:30:04;99841.50;;;3.29;67.23
37200;BME280;23096;50.892;16.746;2024-03-17T05:32:34;99846.43;;;3.29;67.21
37200;BME280;23096;50.892;16.746;2024-03-17T05:34:59;99847.65;;;3.31;67.10
37200;BME280;23096;50.892;16.746;2024-03-17T05:37:24;99846.78;;;3.32;67.12
37200;BME280;23096;50.892;16.746;2024-03-17T05:39:50;99855.98;;;3.33;67.18
37200;BME280;23096;50.892;16.746;2024-03-17T05:42:16;99858.17;;;3.32;67.13
37200;BME280;23096;50.892;16.746;2024-03-17T05:44:41;99856.64;;;3.32;67.13
37200;BME280;23096;50.892;16.746;2024-03-17T05:47:17;99857.84;;;3.33;67.06
37200;BME280;23096;50.892;16.746;2024-03-17T05:49:43;99859.73;;;3.34;67.24
37200;BME280;23096;50.892;16.746;2024-03-17T05:52:09;99853.45;;;3.37;67.06
37200;BME280;23096;50.892;16.746;2024-03-17T05:54:35;99855.16;;;3.39;67.04
37200;BME280;23096;50.892;16.746;2024-03-17T05:57:01;99857.05;;;3.40;67.12
37200;BME280;23096;50.892;16.746;2024-03-17T05:59:30;99856.05;;;3.42;67.15
37200;BME280;23096;50.892;16.746;2024-03-17T06:01:56;99862.83;;;3.42;67.08
37200;BME280;23096;50.892;16.746;2024-03-17T06:04:22;99871.35;;;3.44;67.08
37200;BME280;23096;50.892;16.746;2024-03-17T06:06:49;99866.09;;;3.47;67.18
37200;BME280;23096;50.892;16.746;2024-03-17T06:09:14;99862.88;;;3.49;67.07
37200;BME280;23096;50.892;16.746;2024-03-17T06:11:43;99865.95;;;3.52;67.20
37200;BME280;23096;50.892;16.746;2024-03-17T06:14:08;99863.77;;;3.55;67.10
37200;BME280;23096;50.892;16.746;2024-03-17T06:16:37;99857.69;;;3.59;67.11
37200;BME280;23096;50.892;16.746;2024-03-17T06:19:02;99857.18;;;3.62;67.12
37200;BME280;23096;50.892;16.746;2024-03-17T06:21:28;99861.45;;;3.64;67.15
37200;BME280;23096;50.892;16.746;2024-03-17T06:23:54;99865.71;;;3.67;67.21
37200;BME280;23096;50.892;16.746;2024-03-17T06:26:19;99865.89;;;3.70;67.05
37200;BME280;23096;50.892;16.746;2024-03-17T06:28:46;99871.70;;;3.74;67.16
37200;BME280;23096;50.892;16.746;2024-03-17T06:31:12;99875.81;;;3.78;67.15
37200;BME280;23096;50.892;16.746;2024-03-17T06:33:37;99879.21;;;3.81;67.17
37200;BME280;23096;50.892;16.746;2024-03-17T06:36:04;99881.11;;;3.84;67.19
37200;BME280;23096;50.892;16.746;2024-03-17T06:38:30;99886.23;;;3.88;67.16
37200;BME280;23096;50.892;16.746;2024-03-17T06:40:56;99884.04;;;3.92;67.03
37200;BME280;23096;50.892;16.746;2024-03-17T06:43:21;99889.83;;;3.94;67.04
37200;BME280;23096;50.892;16.746;2024-03-17T06:45:57;99892.39;;;3.96;67.09
37200;BME280;23096;50.892;16.746;2024-03-17T06:48:27;99896.32;;;3.98;67.04
37200;BME280;23096;50.892;16.746;2024-03-17T06:50:53;99904.83;;;4.01;66.91
37200;BME280;23096;50.892;16.746;2024-03-17T06:53:23;99908.08;;;4.04;67.03
37200;BME280;23096;50.892;16.746;2024-03-17T06:55:55;99913.70;;;4.09;67.11
37200;BME280;23096;50.892;16.746;2024-03-17T06:58:26;99920.86;;;4.13;67.09
37200;BME280;23096;50.892;16.746;2024-03-17T07:00:57;99922.92;;;4.16;67.13
37200;BME280;23096;50.892;16.746;2024-03-17T07:03:23;99920.39;;;4.20;67.00
37200;BME280;23096;50.892;16.746;2024-03-17T07:05:56;99920.91;;;4.22;67.03
37200;BME280;23096;50.892;16.746;2024-03-17T07:08:23;99916.33;;;4.22;66.99
37200;BME280;23096;50.892;16.746;2024-03-17T07:11:00;99917.70;;;4.25;67.00
37200;BME280;23096;50.892;16.746;2024-03-17T07:13:33;99920.77;;;4.27;67.00
37200;BME280;23096;50.892;16.746;2024-03-17T07:16:00;99917.21;;;4.30;66.95
37200;BME280;23096;50.892;16.746;2024-03-17T07:18:27;99913.66;;;4.33;66.92
37200;BME280;23096;50.892;16.746;2024-03-17T07:20:56;99914.86;;;4.37;66.87
37200;BME280;23096;50.892;16.746;2024-03-17T07:23:22;99918.94;;;4.40;66.83
37200;BME280;23096;50.892;16.746;2024-03-17T07:25:55;99909.42;;;4.41;66.85
37200;BME280;23096;50.892;16.746;2024-03-17T07:28:21;99914.20;;;4.43;66.80
37200;BME280;23096;50.892;16.746;2024-03-17T07:30:57;99919.98;;;4.47;66.85
37200;BME280;23096;50.892;16.746;2024-03-17T07:33:23;99919.16;;;4.50;66.77
37200;BME280;23096;50.892;16.746;2024-03-17T07:35:56;99922.92;;;4.56;66.73
37200;BME280;23096;50.892;16.746;2024-03-17T07:38:24;99915.61;;;4.59;66.62
37200;BME280;23096;50.892;16.746;2024-03-17T07:41:06;99917.15;;;4.62;66.66
37200;BME280;23096;50.892;16.746;2024-03-17T07:43:35;99921.07;;;4.66;66.55
37200;BME280;23096;50.892;16.746;2024-03-17T07:46:07;99922.98;;;4.73;66.67
37200;BME280;23096;50.892;16.746;2024-03-17T07:48:35;99917.89;;;4.80;66.46
37200;BME280;23096;50.892;16.746;2024-03-17T07:51:07;99919.60;;;4.84;66.46
37200;BME280;23096;50.892;16.746;2024-03-17T07:53:34;99920.29;;;4.87;66.37
37200;BME280;23096;50.892;16.746;2024-03-17T07:56:05;99915.52;;;4.91;66.32
37200;BME280;23096;50.892;16.746;2024-03-17T07:58:32;99910.25;;;4.98;66.26
37200;BME280;23096;50.892;16.746;2024-03-17T08:01:04;99910.44;;;5.04;66.29
37200;BME280;23096;50.892;16.746;2024-03-17T08:03:31;99909.24;;;5.07;66.11
37200;BME280;23096;50.892;16.746;2024-03-17T08:05:58;99912.13;;;5.09;66.01
37200;BME280;23096;50.892;16.746;2024-03-17T08:08:24;99906.69;;;5.11;66.08
37200;BME280;23096;50.892;16.746;2024-03-17T08:10:50;99902.44;;;5.15;66.02
37200;BME280;23096;50.892;16.746;2024-03-17T08:13:17;99901.25;;;5.18;65.85
37200;BME280;23096;50.892;16.746;2024-03-17T08:15:49;99900.58;;;5.21;65.67
37200;BME280;23096;50.892;16.746;2024-03-17T08:18:22;99897.00;;;5.23;65.64
37200;BME280;23096;50.892;16.746;2024-03-17T08:20:48;99894.27;;;5.29;65.59
37200;BME280;23096;50.892;16.746;2024-03-17T08:23:13;99898.02;;;5.34;65.43
37200;BME280;23096;50.892;16.746;2024-03-17T08:25:39;99893.77;;;5.39;65.44
37200;BME280;23096;50.892;16.746;2024-03-17T08:28:05;99892.56;;;5.46;65.25
37200;BME280;23096;50.892;16.746;2024-03-17T08:30:33;99898.86;;;5.48;65.26
37200;BME280;23096;50.892;16.746;2024-03-17T08:32:59;99891.36;;;5.50;65.05
37200;BME280;23096;50.892;16.746;2024-03-17T08:35:24;99894.09;;;5.53;64.89
37200;BME280;23096;50.892;16.746;2024-03-17T08:37:50;99895.62;;;5.54;64.85
37200;BME280;23096;50.892;16.746;2024-03-17T08:40:17;99894.76;;;5.57;64.68
37200;BME280;23096;50.892;16.746;2024-03-17T08:42:43;99893.74;;;5.60;64.51
37200;BME280;23096;50.892;16.746;2024-03-17T08:45:11;99895.60;;;5.65;64.44
37200;BME280;23096;50.892;16.746;2024-03-17T08:47:38;99904.11;;;5.68;64.34
37200;BME280;23096;50.892;16.746;2024-03-17T08:50:04;99897.47;;;5.73;64.28
37200;BME280;23096;50.892;16.746;2024-03-17T08:52:30;99895.08;;;5.78;64.15
37200;BME280;23096;50.892;16.746;2024-03-17T08:54:59;99897.45;;;5.85;64.07
37200;BME280;23096;50.892;16.746;2024-03-17T08:57:25;99899.48;;;5.93;64.05
37200;BME280;23096;50.892;16.746;2024-03-17T08:59:50;99900.14;;;6.04;64.00
37200;BME280;23096;50.892;16.746;2024-03-17T09:02:20;99896.71;;;6.12;63.82
37200;BME280;23096;50.892;16.746;2024-03-17T09:04:47;99903.52;;;6.15;63.79
37200;BME280;23096;50.892;16.746;2024-03-17T09:07:13;99901.28;;;6.22;63.72
37200;BME280;23096;50.892;16.746;2024-03-17T09:09:41;99901.08;;;6.29;63.68
37200;BME280;23096;50.892;16.746;2024-03-17T09:12:08;99902.11;;;6.33;63.51
37200;BME280;23096;50.892;16.746;2024-03-17T09:14:33;99901.95;;;6.29;63.36
37200;BME280;23096;50.892;16.746;2024-03-17T09:16:59;99904.17;;;6.25;63.27
37200;BME280;23096;50.892;16.746;2024-03-17T09:19:24;99900.94;;;6.24;63.25
37200;BME280;23096;50.892;16.746;2024-03-17T09:21:50;99898.53;;;6.27;63.36
37200;BME280;23096;50.892;16.746;2024-03-17T09:24:15;99895.61;;;6.33;63.26
37200;BME280;23096;50.892;16.746;2024-03-17T09:26:41;99897.16;;;6.28;63.02
37200;BME280;23096;50.892;16.746;2024-03-17T09:29:07;99896.48;;;6.27;63.01
37200;BME280;23096;50.892;16.746;2024-03-17T09:31:32;99895.27;;;6.36;63.00
37200;BME280;23096;50.892;16.746;2024-03-17T09:34:03;99893.52;;;6.46;62.90
37200;BME280;23096;50.892;16.746;2024-03-17T09:36:30;99896.20;;;6.54;62.83
37200;BME280;23096;50.892;16.746;2024-03-17T09:38:56;99892.93;;;6.58;62.63
37200;BME280;23096;50.892;16.746;2024-03-17T09:41:23;99895.64;;;6.62;62.58
37200;BME280;23096;50.892;16.746;2024-03-17T09:43:54;99894.07;;;6.69;62.44
37200;BME280;23096;50.892;16.746;2024-03-17T09:46:22;99895.44;;;6.69;62.22
37200;BME280;23096;50.892;16.746;2024-03-17T09:48:48;99893.88;;;6.73;62.22
37200;BME280;23096;50.892;16.746;2024-03-17T09:51:21;99891.81;;;6.76;62.07
37200;BME280;23096;50.892;16.746;2024-03-17T09:53:48;99888.56;;;6.78;61.97
37200;BME280;23096;50.892;16.746;2024-03-17T09:56:18;99887.38;;;6.76;61.82
37200;BME280;23096;50.892;16.746;2024-03-17T09:58:51;99889.75;;;6.78;61.71
37200;BME280;23096;50.892;16.746;2024-03-17T10:01:17;99885.63;;;6.82;61.63
37200;BME280;23096;50.892;16.746;2024-03-17T10:06:18;99891.30;;;7.01;61.66
37200;BME280;23096;50.892;16.746;2024-03-17T10:08:48;99888.86;;;7.08;61.46
37200;BME280;23096;50.892;16.746;2024-03-17T10:11:18;99886.33;;;7.04;61.26
37200;BME280;23096;50.892;16.746;2024-03-17T10:13:45;99889.20;;;7.09;61.23
37200;BME280;23096;50.892;16.746;2024-03-17T10:16:38;99893.08;;;7.17;61.14
37200;BME280;23096;50.892;16.746;2024-03-17T10:21:33;99886.63;;;7.31;60.89
37200;BME280;23096;50.892;16.746;2024-03-17T10:24:22;99896.17;;;7.33;60.74
37200;BME280;23096;50.892;16.746;2024-03-17T10:26:49;99895.86;;;7.30;60.53
37200;BME280;23096;50.892;16.746;2024-03-17T10:29:26;99889.14;;;7.39;60.55
37200;BME280;23096;50.892;16.746;2024-03-17T10:32:03;99886.52;;;7.45;60.55
37200;BME280;23096;50.892;16.746;2024-03-17T10:34:30;99879.48;;;7.49;60.26
37200;BME280;23096;50.892;16.746;2024-03-17T10:39:31;99886.21;;;7.40;60.00
37200;BME280;23096;50.892;16.746;2024-03-17T10:42:03;99889.52;;;7.33;59.81
37200;BME280;23096;50.892;16.746;2024-03-17T10:44:29;99882.59;;;7.24;59.81
37200;BME280;23096;50.892;16.746;2024-03-17T10:46:57;99887.25;;;7.19;59.63
37200;BME280;23096;50.892;16.746;2024-03-17T10:49:28;99882.45;;;7.19;59.66
37200;BME280;23096;50.892;16.746;2024-03-17T10:54:26;99895.32;;;7.34;59.45
37200;BME280;23096;50.892;16.746;2024-03-17T10:57:07;99889.58;;;7.27;59.26
37200;BME280;23096;50.892;16.746;2024-03-17T10:59:47;99880.39;;;7.22;59.19
37200;BME280;23096;50.892;16.746;2024-03-17T11:02:24;99883.78;;;7.25;59.18
37200;BME280;23096;50.892;16.746;2024-03-17T11:04:59;99881.34;;;7.29;59.10
37200;BME280;23096;50.892;16.746;2024-03-17T11:07:25;99885.09;;;7.30;59.01
37200;BME280;23096;50.892;16.746;2024-03-17T11:09:54;99881.70;;;7.29;58.91
37200;BME280;23096;50.892;16.746;2024-03-17T11:12:53;99879.64;;;7.30;58.92
37200;BME280;23096;50.892;16.746;2024-03-17T11:17:51;99879.98;;;7.48;58.82
37200;BME280;23096;50.892;16.746;2024-03-17T11:20:21;99880.96;;;7.54;58.82
37200;BME280;23096;50.892;16.746;2024-03-17T11:22:58;99875.10;;;7.60;58.76
37200;BME280;23096;50.892;16.746;2024-03-17T11:28:07;99873.73;;;7.76;58.53
37200;BME280;23096;50.892;16.746;2024-03-17T11:39:02;99864.61;;;7.64;58.23
37200;BME280;23096;50.892;16.746;2024-03-17T11:46:44;99862.08;;;7.62;58.25
37200;BME280;23096;50.892;16.746;2024-03-17T11:49:21;99854.64;;;7.69;58.16
37200;BME280;23096;50.892;16.746;2024-03-17T11:51:48;99854.36;;;7.63;57.96
37200;BME280;23096;50.892;16.746;2024-03-17T11:54:18;99854.44;;;7.56;57.85
37200;BME280;23096;50.892;16.746;2024-03-17T11:56:49;99852.09;;;7.52;57.75
37200;BME280;23096;50.892;16.746;2024-03-17T11:59:15;99853.55;;;7.41;57.61
37200;BME280;23096;50.892;16.746;2024-03-17T12:01:46;99847.95;;;7.37;57.71
37200;BME280;23096;50.892;16.746;2024-03-17T12:04:16;99842.15;;;7.38;57.62
37200;BME280;23096;50.892;16.746;2024-03-17T12:06:50;99843.39;;;7.32;57.50
37200;BME280;23096;50.892;16.746;2024-03-17T12:09:27;99843.61;;;7.26;57.56
37200;BME280;23096;50.892;16.746;2024-03-17T12:12:01;99834.65;;;7.35;57.76
37200;BME280;23096;50.892;16.746;2024-03-17T12:14:28;99832.67;;;7.44;57.69
37200;BME280;23096;50.892;16.746;2024-03-17T12:16:55;99837.21;;;7.53;57.63
37200;BME280;23096;50.892;16.746;2024-03-17T12:19:22;99839.51;;;7.62;57.55
37200;BME280;23096;50.892;16.746;2024-03-17T12:21:52;99835.71;;;7.64;57.36
37200;BME280;23096;50.892;16.746;2024-03-17T12:24:27;99830.27;;;7.62;57.27
37200;BME280;23096;50.892;16.746;2024-03-17T12:26:54;99827.73;;;7.60;57.17
37200;BME280;23096;50.892;16.746;2024-03-17T12:31:54;99831.80;;;7.47;56.96
37200;BME280;23096;50.892;16.746;2024-03-17T12:34:21;99825.98;;;7.46;56.97
37200;BME280;23096;50.892;16.746;2024-03-17T12:36:48;99824.08;;;7.48;56.87
37200;BME280;23096;50.892;16.746;2024-03-17T12:39:35;99820.86;;;7.46;56.71
37200;BME280;23096;50.892;16.746;2024-03-17T12:44:37;99820.63;;;7.35;56.46
37200;BME280;23096;50.892;16.746;2024-03-17T12:47:08;99818.61;;;7.32;56.40
37200;BME280;23096;50.892;16.746;2024-03-17T12:49:34;99820.64;;;7.33;56.29
37200;BME280;23096;50.892;16.746;2024-03-17T12:52:00;99817.69;;;7.38;56.18
37200;BME280;23096;50.892;16.746;2024-03-17T12:54:28;99812.50;;;7.44;56.20
37200;BME280;23096;50.892;16.746;2024-03-17T12:57:04;99806.80;;;7.50;56.20
37200;BME280;23096;50.892;16.746;2024-03-17T12:59:49;99805.11;;;7.64;56.22
37200;BME280;23096;50.892;16.746;2024-03-17T13:02:33;99803.71;;;7.67;55.96
37200;BME280;23096;50.892;16.746;2024-03-17T13:05:06;99798.33;;;7.60;55.79
37200;BME280;23096;50.892;16.746;2024-03-17T13:07:32;99793.01;;;7.62;55.74
37200;BME280;23096;50.892;16.746;2024-03-17T13:09:57;99792.35;;;7.59;55.63
37200;BME280;23096;50.892;16.746;2024-03-17T13:12:23;99784.98;;;7.60;55.59
37200;BME280;23096;50.892;16.746;2024-03-17T13:14:48;99788.73;;;7.61;55.48
37200;BME280;23096;50.892;16.746;2024-03-17T13:17:15;99785.96;;;7.64;55.40
37200;BME280;23096;50.892;16.746;2024-03-17T13:19:47;99779.55;;;7.72;55.52
37200;BME280;23096;50.892;16.746;2024-03-17T13:22:13;99778.63;;;7.77;55.50
37200;BME280;23096;50.892;16.746;2024-03-17T13:24:39;99778.77;;;7.79;55.41
37200;BME280;23096;50.892;16.746;2024-03-17T13:27:05;99775.67;;;7.81;55.38
37200;BME280;23096;50.892;16.746;2024-03-17T13:29:32;99777.33;;;7.86;55.41
37200;BME280;23096;50.892;16.746;2024-03-17T13:32:04;99773.02;;;8.01;55.54
37200;BME280;23096;50.892;16.746;2024-03-17T13:34:30;99775.83;;;8.09;55.37
37200;BME280;23096;50.892;16.746;2024-03-17T13:36:56;99773.67;;;8.05;55.17